Time;durP1;ratioP1;P1;durP2;ratioP2;P2;SDS_P1;SDS_P2;PMS_P1;PMS_P2;Temp;Humidity;BMP_temperature;BMP_pressure;BME280_temperature;BME280_humidity;BME280_pressure;Samples;Min_cycle;Max_cycle;Signal;HPM_P1;HPM_P2
2022/10/07 00:02:10;;;;;;;3.55;0.60;;;8.60;99.90;;;;;;5000044;28;20524;-76
2022/10/07 00:04:38;;;;;;;3.13;0.63;;;8.60;99.90;;;;;;4983626;28;20049;-76
2022/10/07 00:07:04;;;;;;;4.95;0.80;;;8.60;99.90;;;;;;5000127;28;20041;-76
2022/10/07 00:09:30;;;;;;;1.23;0.60;;;8.50;99.90;;;;;;5000045;28;20374;-76
2022/10/07 00:11:58;;;;;;;2.88;0.70;;;8.50;99.90;;;;;;5000835;28;20045;-76
2022/10/07 00:14:24;;;;;;;4.40;0.70;;;8.50;99.90;;;;;;5000024;28;20076;-76
2022/10/07 00:16:51;;;;;;;3.00;0.70;;;8.50;99.90;;;;;;5014062;28;20046;-76
2022/10/07 00:19:17;;;;;;;1.52;0.40;;;8.50;99.90;;;;;;4999923;28;20030;-76
2022/10/07 00:21:43;;;;;;;4.25;0.70;;;8.40;99.90;;;;;;4998174;28;20420;-77
2022/10/07 00:24:10;;;;;;;1.50;0.50;;;8.40;99.90;;;;;;5015200;28;20392;-77
2022/10/07 00:26:36;;;;;;;4.28;0.52;;;8.40;99.90;;;;;;5001554;28;20034;-76
2022/10/07 00:29:05;;;;;;;2.65;0.57;;;8.40;99.90;;;;;;4999751;28;20030;-76
2022/10/07 00:31:35;;;;;;;1.73;0.43;;;8.40;99.90;;;;;;5001055;28;20140;-77
2022/10/07 00:34:02;;;;;;;4.60;0.60;;;8.30;99.90;;;;;;5001199;28;20038;-76
2022/10/07 00:36:33;;;;;;;4.70;0.70;;;8.30;99.90;;;;;;5004673;28;20535;-76
2022/10/07 00:39:03;;;;;;;4.82;0.73;;;8.30;99.90;;;;;;5013725;28;20036;-77
2022/10/07 00:41:39;;;;;;;2.17;0.50;;;8.30;99.90;;;;;;5000759;28;20083;-77
2022/10/07 00:44:30;;;;;;;3.33;0.60;;;8.30;99.90;;;;;;5015149;28;20041;-77
2022/10/07 00:47:27;;;;;;;4.00;0.80;;;8.20;99.90;;;;;;4999228;28;20042;-77
2022/10/07 00:50:05;;;;;;;3.08;0.85;;;8.20;99.90;;;;;;4968797;28;20045;-78
2022/10/07 00:52:36;;;;;;;5.85;0.80;;;8.20;99.90;;;;;;4986836;28;20041;-77
2022/10/07 00:55:07;;;;;;;4.25;1.20;;;8.20;99.90;;;;;;4988328;28;20041;-77
2022/10/07 00:57:36;;;;;;;5.25;1.27;;;8.20;99.90;;;;;;5012138;28;20038;-77
2022/10/07 01:00:05;;;;;;;6.47;1.00;;;8.10;99.90;;;;;;4999071;28;20038;-77
2022/10/07 01:02:33;;;;;;;5.13;1.17;;;8.10;99.90;;;;;;4997679;28;20061;-77
2022/10/07 01:05:03;;;;;;;4.10;0.70;;;8.10;99.90;;;;;;4998650;28;20034;-75
2022/10/07 01:07:30;;;;;;;4.18;0.95;;;8.10;99.90;;;;;;5013128;28;20335;-78
2022/10/07 01:09:58;;;;;;;2.95;0.90;;;8.10;99.90;;;;;;4999594;28;20044;-76
2022/10/07 01:12:44;;;;;;;4.88;0.68;;;8.10;99.90;;;;;;5001168;28;20044;-77
2022/10/07 01:15:35;;;;;;;3.08;1.00;;;8.10;99.90;;;;;;4998031;28;20037;-76
2022/10/07 01:18:13;;;;;;;2.72;0.70;;;8.10;99.90;;;;;;4997881;28;20504;-76
2022/10/07 01:20:58;;;;;;;2.90;0.60;;;8.00;99.90;;;;;;5001178;28;20042;-76
2022/10/07 01:23:58;;;;;;;6.35;1.15;;;8.00;99.90;;;;;;5000411;28;20536;-77
2022/10/07 01:26:42;;;;;;;5.90;1.00;;;8.00;99.90;;;;;;4998158;28;20045;-76
2022/10/07 01:29:13;;;;;;;3.00;0.80;;;8.00;99.90;;;;;;5000043;28;20045;-76
2022/10/07 01:31:52;;;;;;;4.53;1.15;;;8.00;99.90;;;;;;4987089;28;20034;-77
2022/10/07 01:34:22;;;;;;;2.47;0.95;;;8.00;99.90;;;;;;4999012;28;20042;-76
2022/10/07 01:36:51;;;;;;;6.40;1.70;;;8.00;99.90;;;;;;4988246;28;20416;-76
2022/10/07 01:39:23;;;;;;;7.32;0.95;;;7.90;99.90;;;;;;4995912;28;20042;-76
2022/10/07 01:41:50;;;;;;;3.70;0.85;;;7.90;99.90;;;;;;4997755;28;20060;-76
2022/10/07 01:44:17;;;;;;;3.67;0.80;;;7.90;99.90;;;;;;5014502;28;20409;-76
2022/10/07 01:46:43;;;;;;;2.83;0.90;;;7.90;99.90;;;;;;5011933;28;20031;-77
2022/10/07 01:49:10;;;;;;;4.28;0.90;;;7.90;99.90;;;;;;4984907;28;20045;-76
2022/10/07 01:51:52;;;;;;;2.53;0.63;;;7.90;99.90;;;;;;4998484;28;20037;-77
2022/10/07 01:54:40;;;;;;;4.68;0.80;;;7.90;99.90;;;;;;5012036;28;20037;-77
2022/10/07 01:57:26;;;;;;;7.18;1.15;;;7.80;99.90;;;;;;4998286;28;20045;-77
2022/10/07 02:00:05;;;;;;;4.60;1.20;;;7.90;99.90;;;;;;4998840;28;20057;-77
2022/10/07 02:02:55;;;;;;;6.05;1.40;;;7.80;99.90;;;;;;5001414;28;20054;-76
2022/10/07 02:05:27;;;;;;;2.30;0.77;;;7.80;99.90;;;;;;5001257;28;20038;-77
2022/10/07 02:08:04;;;;;;;4.25;1.50;;;7.80;99.90;;;;;;4980842;28;20040;-77
2022/10/07 02:10:42;;;;;;;5.13;1.20;;;7.80;99.90;;;;;;5000029;28;20041;-77
2022/10/07 02:13:28;;;;;;;3.33;0.77;;;7.80;99.90;;;;;;4998388;28;20393;-77
2022/10/07 02:16:06;;;;;;;3.75;0.77;;;7.70;99.90;;;;;;4999693;28;20049;-77
2022/10/07 02:18:34;;;;;;;4.03;0.77;;;7.70;99.90;;;;;;5011750;28;20484;-76
2022/10/07 02:21:05;;;;;;;3.65;0.90;;;7.70;99.90;;;;;;4999774;28;20069;-76
2022/10/07 02:23:33;;;;;;;5.15;1.00;;;7.70;99.90;;;;;;4983135;28;20045;-76
2022/10/07 02:26:02;;;;;;;4.90;0.80;;;7.70;99.90;;;;;;4983132;28;20041;-76
2022/10/07 02:28:30;;;;;;;2.92;0.60;;;7.70;99.90;;;;;;4997838;28;20525;-77
2022/10/07 02:31:01;;;;;;;4.32;0.90;;;7.70;99.90;;;;;;4982816;28;20045;-77
2022/10/07 02:33:32;;;;;;;3.67;0.90;;;7.70;99.90;;;;;;4999643;28;20038;-76
2022/10/07 02:36:04;;;;;;;3.78;0.80;;;7.70;99.90;;;;;;5000337;28;20500;-77
2022/10/07 02:38:32;;;;;;;2.17;0.60;;;7.70;99.90;;;;;;4997629;28;20037;-76
2022/10/07 02:41:09;;;;;;;4.57;0.85;;;7.70;99.90;;;;;;5002968;28;20040;-76
2022/10/07 02:43:47;;;;;;;4.53;1.00;;;7.70;99.90;;;;;;4989822;28;20552;-76
2022/10/07 02:46:30;;;;;;;6.75;1.10;;;7.70;99.90;;;;;;5002374;28;20052;-76
2022/10/07 02:49:10;;;;;;;4.00;0.90;;;7.60;99.90;;;;;;5000824;28;20038;-77
2022/10/07 02:51:45;;;;;;;3.45;0.90;;;7.60;99.90;;;;;;4988971;28;20354;-77
2022/10/07 02:54:15;;;;;;;3.05;1.00;;;7.60;99.90;;;;;;5001696;28;20030;-76
2022/10/07 02:56:43;;;;;;;3.13;0.68;;;7.60;99.90;;;;;;4987700;28;20045;-76
2022/10/07 02:59:13;;;;;;;4.88;0.70;;;7.60;99.90;;;;;;5017359;28;20042;-76
2022/10/07 03:01:47;;;;;;;5.00;0.90;;;7.60;99.90;;;;;;5017798;28;20048;-76
2022/10/07 03:04:14;;;;;;;3.83;0.70;;;7.60;99.90;;;;;;5015414;28;20401;-76
2022/10/07 03:06:41;;;;;;;5.32;0.90;;;7.60;99.90;;;;;;4999532;28;20037;-76
2022/10/07 03:09:08;;;;;;;4.95;1.08;;;7.60;99.90;;;;;;4997379;28;20027;-76
2022/10/07 03:11:37;;;;;;;4.68;1.17;;;7.60;99.90;;;;;;4990965;28;20042;-77
2022/10/07 03:14:04;;;;;;;2.88;0.80;;;7.60;99.90;;;;;;5001564;28;20485;-76
2022/10/07 03:16:31;;;;;;;4.82;0.82;;;7.60;99.90;;;;;;5000228;28;20049;-74
2022/10/07 03:18:57;;;;;;;4.18;0.82;;;7.60;99.90;;;;;;5002943;28;20040;-75
2022/10/07 03:21:32;;;;;;;5.15;0.90;;;7.60;99.90;;;;;;5014418;28;20042;-75
2022/10/07 03:24:03;;;;;;;1.92;0.55;;;7.50;99.90;;;;;;4985451;28;20041;-76
2022/10/07 03:26:31;;;;;;;3.00;0.93;;;7.50;99.90;;;;;;5002428;28;20046;-75
2022/10/07 03:28:59;;;;;;;5.10;0.70;;;7.50;99.90;;;;;;4999637;28;20045;-76
2022/10/07 03:31:27;;;;;;;3.63;0.90;;;7.50;99.90;;;;;;5002415;28;20520;-76
2022/10/07 03:33:56;;;;;;;1.85;0.65;;;7.50;99.90;;;;;;4998331;28;20045;-75
2022/10/07 03:36:23;;;;;;;5.07;0.80;;;7.50;99.90;;;;;;4973792;28;20860;-76
2022/10/07 03:38:50;;;;;;;3.83;0.90;;;7.50;99.90;;;;;;4998677;28;20038;-77
2022/10/07 03:41:18;;;;;;;3.90;0.90;;;7.50;99.90;;;;;;5012890;28;20034;-76
2022/10/07 03:43:45;;;;;;;5.35;0.93;;;7.50;99.90;;;;;;4999224;28;20484;-76
2022/10/07 03:46:17;;;;;;;2.60;0.70;;;7.50;99.90;;;;;;4985291;28;20519;-76
2022/10/07 03:48:44;;;;;;;4.28;0.82;;;7.50;99.90;;;;;;5013599;28;20045;-76
2022/10/07 03:51:10;;;;;;;5.13;0.70;;;7.40;99.90;;;;;;5016943;28;20380;-76
2022/10/07 03:53:39;;;;;;;2.88;0.60;;;7.40;99.90;;;;;;5002014;28;20030;-76
2022/10/07 03:56:06;;;;;;;3.15;0.75;;;7.40;99.90;;;;;;4986018;28;20035;-76
2022/10/07 03:58:33;;;;;;;5.15;0.70;;;7.40;99.90;;;;;;4995735;28;20046;-76
2022/10/07 04:01:05;;;;;;;4.22;0.82;;;7.40;99.90;;;;;;5000430;28;20045;-76
2022/10/07 04:03:32;;;;;;;4.05;0.75;;;7.40;99.90;;;;;;4997667;28;20648;-76
2022/10/07 04:05:59;;;;;;;3.42;0.70;;;7.40;99.90;;;;;;5012454;28;20041;-76
2022/10/07 04:08:28;;;;;;;4.63;0.82;;;7.40;99.90;;;;;;4985009;28;20053;-76
2022/10/07 04:10:58;;;;;;;4.53;0.70;;;7.40;99.90;;;;;;5001766;28;20037;-76
2022/10/07 04:13:25;;;;;;;4.25;1.13;;;7.40;99.90;;;;;;4996400;28;20045;-76
2022/10/07 04:15:52;;;;;;;2.97;0.70;;;7.40;99.90;;;;;;5015883;28;20038;-76
2022/10/07 04:18:20;;;;;;;2.03;0.50;;;7.40;99.90;;;;;;4996462;28;20118;-76
2022/10/07 04:20:47;;;;;;;3.38;0.50;;;7.40;99.90;;;;;;5003757;28;20030;-75
2022/10/07 04:23:15;;;;;;;3.17;0.70;;;7.40;99.90;;;;;;5001877;28;20045;-75
2022/10/07 04:25:43;;;;;;;3.22;0.57;;;7.40;99.90;;;;;;5001226;28;20037;-76
2022/10/07 04:28:22;;;;;;;3.92;0.80;;;7.40;99.90;;;;;;4994650;28;20129;-76
2022/10/07 04:30:53;;;;;;;4.38;1.15;;;7.40;99.90;;;;;;5001311;28;20045;-76
2022/10/07 04:33:26;;;;;;;6.65;1.15;;;7.40;99.90;;;;;;4987063;28;20064;-76
2022/10/07 04:35:54;;;;;;;3.63;1.02;;;7.40;99.90;;;;;;5001155;28;20566;-75
2022/10/07 04:38:21;;;;;;;5.22;0.90;;;7.40;99.90;;;;;;4997784;28;20520;-76
2022/10/07 04:40:49;;;;;;;3.35;0.60;;;7.40;99.90;;;;;;4984350;28;20412;-76
2022/10/07 04:43:22;;;;;;;4.47;0.60;;;7.40;99.90;;;;;;4998572;28;20041;-76
2022/10/07 04:46:00;;;;;;;3.65;0.75;;;7.40;99.90;;;;;;5000675;28;20041;-76
2022/10/07 04:48:27;;;;;;;4.55;0.80;;;7.40;99.90;;;;;;4997876;28;20049;-78
2022/10/07 04:50:55;;;;;;;5.70;0.70;;;7.40;99.90;;;;;;5001601;28;20489;-76
2022/10/07 04:53:22;;;;;;;4.25;0.90;;;7.40;99.90;;;;;;5001050;28;20041;-76
2022/10/07 04:55:50;;;;;;;2.13;0.70;;;7.40;99.90;;;;;;4999938;28;20690;-77
2022/10/07 04:58:18;;;;;;;4.60;0.90;;;7.40;99.90;;;;;;4997440;28;20053;-77
2022/10/07 05:00:48;;;;;;;3.85;1.02;;;7.40;99.90;;;;;;4999751;28;20397;-76
2022/10/07 05:03:17;;;;;;;3.22;0.80;;;7.40;99.90;;;;;;5014335;28;20520;-77
2022/10/07 05:05:47;;;;;;;4.43;1.00;;;7.30;99.90;;;;;;5000349;28;20056;-76
2022/10/07 05:08:16;;;;;;;2.63;0.73;;;7.30;99.90;;;;;;4996651;28;20033;-76
2022/10/07 05:10:43;;;;;;;5.13;0.80;;;7.30;99.90;;;;;;4999065;28;20421;-76
2022/10/07 05:13:12;;;;;;;5.43;1.10;;;7.30;99.90;;;;;;4998725;28;20389;-76
2022/10/07 05:16:08;;;;;;;5.15;0.98;;;7.30;99.90;;;;;;4983504;28;20053;-77
2022/10/07 05:18:38;;;;;;;3.60;0.80;;;7.30;99.90;;;;;;4977428;28;20045;-76
2022/10/07 05:21:07;;;;;;;5.85;1.35;;;7.20;99.90;;;;;;4997839;28;20039;-77
2022/10/07 05:23:37;;;;;;;7.00;1.45;;;7.20;99.90;;;;;;4999769;28;20034;-77
2022/10/07 05:26:09;;;;;;;4.28;0.98;;;7.20;99.90;;;;;;5012712;28;20040;-77
2022/10/07 05:28:38;;;;;;;3.63;1.20;;;7.20;99.90;;;;;;4983846;28;20037;-76
2022/10/07 05:31:13;;;;;;;7.97;1.55;;;7.20;99.90;;;;;;4999891;28;20042;-76
2022/10/07 05:33:43;;;;;;;7.72;1.00;;;7.10;99.90;;;;;;5000567;28;20041;-76
2022/10/07 05:36:11;;;;;;;4.13;0.90;;;7.10;99.90;;;;;;4997066;28;20046;-76
2022/10/07 05:38:38;;;;;;;6.93;1.33;;;7.10;99.90;;;;;;5013595;28;20567;-76
2022/10/07 05:41:06;;;;;;;6.13;1.40;;;7.10;99.90;;;;;;4998685;28;20491;-77
2022/10/07 05:43:38;;;;;;;4.25;1.30;;;7.10;99.90;;;;;;5000866;28;20042;-77
2022/10/07 05:46:10;;;;;;;4.97;1.37;;;7.10;99.90;;;;;;4998363;28;20041;-77
2022/10/07 05:48:44;;;;;;;7.18;1.25;;;7.10;99.90;;;;;;4996434;28;20037;-76
2022/10/07 05:51:12;;;;;;;6.07;1.48;;;7.10;99.90;;;;;;4998980;28;20026;-77
2022/10/07 05:53:41;;;;;;;4.75;1.25;;;7.10;99.90;;;;;;4995785;28;20025;-77
2022/10/07 05:56:11;;;;;;;3.78;1.05;;;7.10;99.90;;;;;;5002159;28;20030;-76
2022/10/07 05:58:38;;;;;;;4.63;1.00;;;7.10;99.90;;;;;;4984734;28;20049;-76
2022/10/07 06:01:11;;;;;;;6.15;1.23;;;7.20;99.90;;;;;;4988628;28;20042;-76
2022/10/07 06:03:38;;;;;;;4.57;0.85;;;7.20;99.90;;;;;;4983064;28;20069;-76
2022/10/07 06:06:04;;;;;;;3.35;0.70;;;7.20;99.90;;;;;;4990579;28;20041;-76
2022/10/07 06:08:31;;;;;;;6.10;1.10;;;7.20;99.90;;;;;;4996311;28;20056;-76
2022/10/07 06:13:49;;;;;;;5.55;0.80;;;7.30;99.90;;;;;;4983399;28;20049;-77
2022/10/07 06:16:15;;;;;;;3.78;0.90;;;7.30;99.90;;;;;;4998236;28;20561;-76
2022/10/07 06:18:41;;;;;;;3.70;0.90;;;7.40;99.90;;;;;;4997079;28;20034;-77
2022/10/07 06:21:08;;;;;;;4.10;0.80;;;7.40;99.90;;;;;;4971562;28;20033;-76
2022/10/07 06:23:35;;;;;;;4.78;0.80;;;7.50;99.90;;;;;;4987151;28;20049;-77
2022/10/07 06:26:07;;;;;;;6.75;1.20;;;7.50;99.90;;;;;;5003641;28;20036;-77
2022/10/07 06:28:38;;;;;;;;;;;7.60;99.90;;;;;;4999800;28;20038;-76
2022/10/07 06:31:07;;;;;;;3.15;0.60;;;7.70;99.90;;;;;;5003907;28;19917;-76
2022/10/07 06:33:36;;;;;;;3.00;0.65;;;7.80;99.90;;;;;;4987198;28;20396;-76
2022/10/07 06:36:04;;;;;;;3.35;0.85;;;7.80;99.90;;;;;;5002944;28;20048;-77
2022/10/07 06:38:31;;;;;;;4.68;0.82;;;7.90;99.90;;;;;;5015478;28;20042;-76
2022/10/07 06:41:00;;;;;;;3.45;0.70;;;8.00;99.90;;;;;;5018169;28;20038;-76
2022/10/07 06:43:31;;;;;;;5.07;1.00;;;8.10;99.90;;;;;;5002831;28;20485;-76
2022/10/07 06:46:17;;;;;;;3.85;0.95;;;8.20;99.90;;;;;;5004312;28;20109;-75
2022/10/07 06:48:45;;;;;;;3.33;0.70;;;8.30;99.90;;;;;;4998061;28;20042;-74
2022/10/07 06:51:19;;;;;;;4.22;0.90;;;8.40;99.90;;;;;;5016938;28;20038;-74
2022/10/07 06:53:51;;;;;;;10.43;1.10;;;8.50;99.90;;;;;;5001068;28;20026;-80
2022/10/07 06:56:18;;;;;;;8.60;1.75;;;8.60;99.90;;;;;;5001133;28;20029;-77
2022/10/07 06:58:44;;;;;;;6.47;1.30;;;8.70;99.90;;;;;;4998631;28;20641;-76
2022/10/07 07:01:13;;;;;;;3.97;1.20;;;8.80;99.90;;;;;;4986334;28;20131;-76
2022/10/07 07:03:40;;;;;;;5.65;0.90;;;8.90;99.90;;;;;;5002505;28;20042;-75
2022/10/07 07:06:07;;;;;;;5.20;0.70;;;9.00;99.90;;;;;;5002412;28;20121;-76
2022/10/07 07:08:34;;;;;;;7.47;1.70;;;9.10;99.90;;;;;;4983628;28;20045;-75
2022/10/07 07:13:57;;;;;;;4.95;0.90;;;9.40;99.90;;;;;;5002568;28;20045;-75
2022/10/07 07:16:25;;;;;;;6.40;1.25;;;9.50;99.90;;;;;;4988712;28;20046;-75
2022/10/07 07:18:54;;;;;;;5.28;0.93;;;9.70;99.90;;;;;;5013782;28;20049;-75
2022/10/07 07:21:23;;;;;;;5.80;0.90;;;10.00;99.90;;;;;;4985238;28;20034;-75
2022/10/07 07:23:50;;;;;;;8.68;1.73;;;10.30;99.90;;;;;;5002168;28;20026;-75
2022/10/07 07:26:17;;;;;;;9.75;2.17;;;10.50;99.90;;;;;;5002187;28;20034;-75
2022/10/07 07:28:49;;;;;;;7.20;1.40;;;10.70;99.90;;;;;;4998303;28;20041;-76
2022/10/07 07:31:15;;;;;;;4.72;1.10;;;10.70;99.90;;;;;;5001284;28;20030;-76
2022/10/07 07:33:41;;;;;;;5.78;1.55;;;10.80;99.90;;;;;;4989062;28;20022;-76
2022/10/07 07:36:17;;;;;;;9.07;2.10;;;10.80;99.90;;;;;;5003970;28;20355;-76
2022/10/07 07:38:53;;;;;;;6.80;1.15;;;10.90;99.90;;;;;;4981244;28;20045;-77
2022/10/07 07:41:24;;;;;;;4.45;0.63;;;10.90;99.90;;;;;;5002382;28;20063;-76
2022/10/07 07:43:53;;;;;;;4.60;1.10;;;10.90;99.90;;;;;;4983500;28;20053;-76
2022/10/07 07:46:22;;;;;;;5.93;1.27;;;10.90;99.90;;;;;;5021856;28;20045;-76
2022/10/07 07:48:50;;;;;;;7.57;1.15;;;11.00;99.90;;;;;;4991722;28;20156;-74
2022/10/07 07:51:18;;;;;;;7.25;1.60;;;11.00;99.90;;;;;;5006119;28;20041;-76
2022/10/07 07:53:48;;;;;;;9.02;2.05;;;11.10;99.90;;;;;;4991676;28;20769;-75
2022/10/07 07:56:15;;;;;;;7.28;1.80;;;11.10;99.90;;;;;;5005579;28;20472;-76
2022/10/07 07:58:42;;;;;;;11.13;2.28;;;11.20;99.90;;;;;;5004743;28;20037;-75
2022/10/07 08:01:14;;;;;;;7.88;1.70;;;11.30;99.90;;;;;;4988907;28;20758;-75
2022/10/07 08:03:45;;;;;;;7.65;1.50;;;11.40;99.90;;;;;;4993799;28;20409;-75
2022/10/07 08:06:14;;;;;;;6.57;1.02;;;11.50;99.90;;;;;;4993526;28;20420;-76
2022/10/07 08:08:42;;;;;;;13.55;3.22;;;11.60;99.90;;;;;;5003192;28;20033;-75
2022/10/07 08:11:11;;;;;;;12.07;2.20;;;11.80;99.90;;;;;;4986844;28;20026;-75
2022/10/07 08:13:40;;;;;;;12.90;2.42;;;12.00;99.90;;;;;;4994177;28;20040;-75
2022/10/07 08:16:11;;;;;;;15.02;2.35;;;12.10;99.90;;;;;;4991635;28;20042;-75
2022/10/07 08:18:44;;;;;;;5.00;1.40;;;12.20;99.90;;;;;;5010576;28;20035;-75
2022/10/07 08:21:14;;;;;;;9.70;2.38;;;12.20;99.90;;;;;;5007350;28;20049;-76
2022/10/07 08:23:41;;;;;;;8.77;2.20;;;12.20;99.90;;;;;;5004281;28;20034;-75
2022/10/07 08:26:08;;;;;;;10.00;2.00;;;12.30;99.90;;;;;;5001536;28;20042;-75
2022/10/07 08:28:36;;;;;;;6.95;1.50;;;12.20;99.90;;;;;;5004618;28;20046;-75
2022/10/07 08:31:10;;;;;;;11.65;1.85;;;12.20;99.90;;;;;;5001838;28;20393;-75
2022/10/07 08:33:39;;;;;;;12.00;2.15;;;12.20;99.90;;;;;;5003432;28;20028;-75
2022/10/07 08:36:07;;;;;;;9.82;1.60;;;12.20;99.90;;;;;;5002871;28;20072;-76
2022/10/07 08:38:37;;;;;;;7.88;1.70;;;12.30;99.90;;;;;;4988297;28;20033;-75
2022/10/07 08:41:20;;;;;;;6.85;1.40;;;12.50;99.90;;;;;;4990639;28;20034;-75
2022/10/07 08:43:48;;;;;;;6.22;1.17;;;12.60;99.90;;;;;;4999171;28;20046;-75
2022/10/07 08:46:25;;;;;;;9.25;1.63;;;12.70;99.90;;;;;;5002188;28;20773;-76
2022/10/07 08:49:14;;;;;;;8.98;1.20;;;12.80;99.90;;;;;;4991100;28;20025;-75
2022/10/07 08:51:47;;;;;;;12.48;2.03;;;12.90;99.90;;;;;;4999281;28;20049;-75
2022/10/07 08:54:21;;;;;;;7.30;1.35;;;13.00;99.90;;;;;;5001841;28;20045;-76
2022/10/07 08:56:48;;;;;;;7.43;1.08;;;13.20;99.90;;;;;;4992021;28;20035;-76
2022/10/07 08:59:32;;;;;;;8.05;1.58;;;13.40;99.90;;;;;;4989693;28;20049;-75
2022/10/07 09:02:15;;;;;;;8.55;1.40;;;13.60;99.90;;;;;;4999575;28;20072;-75
2022/10/07 09:04:58;;;;;;;6.65;1.25;;;13.80;99.90;;;;;;4999050;28;20034;-74
2022/10/07 09:07:32;;;;;;;10.10;1.30;;;14.10;99.90;;;;;;4999859;28;20049;-75
2022/10/07 09:10:08;;;;;;;10.25;1.27;;;14.30;99.90;;;;;;5004888;28;20049;-78
2022/10/07 09:12:53;;;;;;;8.60;1.13;;;14.50;99.90;;;;;;5014941;28;20515;-75
2022/10/07 09:15:29;;;;;;;7.45;1.10;;;14.60;99.90;;;;;;5018137;28;20068;-75
2022/10/07 09:18:00;;;;;;;5.13;0.68;;;14.80;99.90;;;;;;4990982;28;20042;-75
2022/10/07 09:20:36;;;;;;;7.97;0.93;;;15.00;99.90;;;;;;5019042;28;20427;-76
2022/10/07 09:23:05;;;;;;;11.65;1.30;;;15.10;99.90;;;;;;5003886;28;20041;-72
2022/10/07 09:25:33;;;;;;;9.27;1.13;;;15.20;99.90;;;;;;5002400;28;20125;-75
2022/10/07 09:28:00;;;;;;;9.30;1.50;;;15.40;99.90;;;;;;5002180;28;20041;-77
2022/10/07 09:30:31;;;;;;;12.55;1.73;;;15.50;99.90;;;;;;5000364;28;20046;-73
2022/10/07 09:32:57;;;;;;;9.00;0.88;;;15.70;99.90;;;;;;5003954;28;20037;-72
2022/10/07 09:35:28;;;;;;;6.80;1.10;;;15.80;99.90;;;;;;5000861;28;20484;-71
2022/10/07 09:38:02;;;;;;;9.20;1.52;;;15.80;99.90;;;;;;5015626;28;20041;-73
2022/10/07 09:41:13;;;;;;;8.80;1.27;;;15.90;99.90;;;;;;4998848;28;20485;-73
2022/10/07 09:43:24;;;;;;;11.90;1.80;;;15.90;99.90;;;;;;4999492;28;20041;-73
2022/10/07 09:45:50;;;;;;;9.80;1.20;;;15.90;99.90;;;;;;4998446;28;20409;-73
2022/10/07 09:48:20;;;;;;;10.18;1.30;;;15.90;99.90;;;;;;5003109;28;20396;-73
2022/10/07 09:50:47;;;;;;;11.65;1.23;;;15.90;99.90;;;;;;5000949;28;20314;-74
2022/10/07 09:53:21;;;;;;;7.78;0.88;;;15.90;99.90;;;;;;5017004;28;20042;-74
2022/10/07 09:55:50;;;;;;;8.20;1.25;;;15.90;99.90;;;;;;4997571;28;20037;-74
2022/10/07 09:58:26;;;;;;;7.47;0.90;;;16.00;99.90;;;;;;5023396;28;20049;-74
2022/10/07 10:00:55;;;;;;;7.68;0.98;;;16.00;99.90;;;;;;4990712;28;20045;-74
2022/10/07 10:03:29;;;;;;;5.55;1.15;;;16.20;99.90;;;;;;4971047;28;1051724;-74
2022/10/07 10:06:01;;;;;;;4.50;0.80;;;16.30;99.90;;;;;;5003715;28;20030;-73
2022/10/07 10:08:34;;;;;;;4.82;0.55;;;16.50;99.90;;;;;;5019899;28;20053;-73
2022/10/07 10:11:26;;;;;;;5.78;1.00;;;16.70;99.90;;;;;;5021478;28;20137;-74
2022/10/07 10:13:53;;;;;;;7.40;1.20;;;17.00;99.90;;;;;;4998158;28;20429;-74
2022/10/07 10:16:33;;;;;;;8.93;1.48;;;17.00;99.90;;;;;;4991258;28;20503;-73
2022/10/07 10:19:08;;;;;;;10.48;1.63;;;17.10;99.90;;;;;;5019886;28;20531;-74
2022/10/07 10:21:39;;;;;;;11.90;1.10;;;17.10;99.90;;;;;;5015585;28;20041;-73
2022/10/07 10:24:13;;;;;;;8.05;1.42;;;17.10;99.90;;;;;;5005539;28;20034;-74
2022/10/07 10:26:52;;;;;;;5.85;0.82;;;17.20;99.90;;;;;;5002868;28;20088;-73
2022/10/07 10:29:47;;;;;;;7.55;1.00;;;17.30;99.90;;;;;;5007604;28;20056;-73
2022/10/07 10:32:42;;;;;;;8.75;0.93;;;17.50;99.90;;;;;;5007279;28;20389;-73
2022/10/07 10:35:23;;;;;;;8.05;0.80;;;17.60;99.90;;;;;;5004873;28;20485;-74
2022/10/07 10:38:18;;;;;;;6.50;0.68;;;17.70;99.90;;;;;;5005671;28;20037;-73
2022/10/07 10:40:56;;;;;;;8.60;1.10;;;17.80;99.90;;;;;;4991362;28;20045;-73
2022/10/07 10:43:59;;;;;;;8.85;1.08;;;17.90;99.90;;;;;;5018458;28;20042;-73
2022/10/07 10:46:26;;;;;;;5.75;1.10;;;18.10;99.90;;;;;;5004365;28;20036;-73
2022/10/07 10:49:09;;;;;;;5.93;0.63;;;18.20;99.90;;;;;;5001816;28;20083;-74
2022/10/07 10:52:01;;;;;;;5.07;0.73;;;18.30;99.90;;;;;;4990874;28;20048;-74
2022/10/07 10:54:43;;;;;;;;;;;18.50;99.90;;;;;;5016274;28;20038;-73
2022/10/07 10:57:37;;;;;;;6.18;1.00;;;18.70;99.90;;;;;;5001254;28;20279;-74
2022/10/07 11:00:13;;;;;;;8.85;0.95;;;19.00;99.90;;;;;;5005943;28;20157;-74
2022/10/07 11:03:11;;;;;;;4.05;0.60;;;19.20;99.90;;;;;;5006014;28;20069;-74
2022/10/07 11:05:39;;;;;;;7.22;1.00;;;19.70;99.90;;;;;;5002517;28;20472;-73
2022/10/07 11:08:16;;;;;;;6.28;1.30;;;20.30;99.90;;;;;;5007173;28;20145;-73
2022/10/07 11:11:00;;;;;;;5.95;1.13;;;20.70;99.90;;;;;;5001431;28;20336;-72
2022/10/07 11:13:49;;;;;;;5.88;0.90;;;20.90;99.90;;;;;;4999790;28;20415;-73
2022/10/07 11:16:21;;;;;;;5.90;1.05;;;21.10;99.90;;;;;;5005040;28;20527;-73
2022/10/07 11:19:13;;;;;;;4.13;0.63;;;21.10;99.90;;;;;;5004452;28;20497;-72
2022/10/07 11:21:45;;;;;;;7.40;0.90;;;20.80;99.90;;;;;;4990495;28;20057;-73
2022/10/07 11:24:18;;;;;;;5.47;0.70;;;20.50;99.90;;;;;;4989339;28;20026;-73
2022/10/07 11:27:08;;;;;;;5.18;0.63;;;20.10;99.90;;;;;;5005279;28;20625;-73
2022/10/07 11:30:01;;;;;;;4.18;0.70;;;19.70;99.90;;;;;;4989978;28;20050;-73
2022/10/07 11:32:42;;;;;;;5.88;0.95;;;19.50;99.90;;;;;;5002991;28;20034;-73
2022/10/07 11:35:20;;;;;;;7.13;0.80;;;19.40;99.90;;;;;;5001533;28;20041;-73
2022/10/07 11:38:32;;;;;;;4.10;0.85;;;19.30;99.90;;;;;;5001452;28;20045;-73
2022/10/07 11:41:23;;;;;;;9.02;0.93;;;19.10;99.90;;;;;;4949039;28;20035;-73
2022/10/07 11:43:57;;;;;;;4.47;0.60;;;19.10;99.90;;;;;;4965413;28;20076;-73
2022/10/07 11:46:44;;;;;;;4.32;0.52;;;19.70;99.90;;;;;;4974490;28;20048;-73
2022/10/07 11:49:23;;;;;;;5.43;0.80;;;20.70;99.90;;;;;;5007234;28;20037;-73
2022/10/07 11:51:56;;;;;;;4.78;0.65;;;21.70;98.80;;;;;;5006432;28;20023;-74
2022/10/07 11:54:26;;;;;;;7.00;1.13;;;22.70;98.20;;;;;;5002233;28;20388;-74
2022/10/07 11:56:57;;;;;;;6.10;1.05;;;23.50;96.60;;;;;;5006361;28;20045;-75
2022/10/07 11:59:32;;;;;;;3.70;0.73;;;24.10;94.60;;;;;;5000965;28;20045;-73
2022/10/07 12:01:59;;;;;;;6.30;0.90;;;24.70;93.80;;;;;;5004020;28;20054;-74
2022/10/07 12:04:28;;;;;;;4.82;0.90;;;25.30;92.80;;;;;;5016093;28;20037;-74
2022/10/07 12:07:35;;;;;;;7.82;1.02;;;25.90;91.80;;;;;;5001307;28;20829;-74
2022/10/07 12:10:01;;;;;;;3.85;0.68;;;26.50;90.00;;;;;;4990200;28;20392;-74
2022/10/07 12:12:43;;;;;;;7.95;1.08;;;26.80;86.20;;;;;;4998876;28;20034;-74
2022/10/07 12:15:32;;;;;;;6.82;1.10;;;27.20;84.20;;;;;;5015646;28;20034;-74
2022/10/07 12:18:04;;;;;;;4.55;0.82;;;27.50;81.20;;;;;;5003024;28;20504;-74
2022/10/07 12:20:36;;;;;;;3.25;0.80;;;27.80;79.50;;;;;;5002314;28;20034;-74
2022/10/07 12:23:24;;;;;;;;;;;28.10;78.10;;;;;;5021660;28;20045;-73
2022/10/07 12:26:43;;;;;;;5.70;0.82;;;28.30;76.60;;;;;;5001313;28;20270;-74
2022/10/07 12:29:44;;;;;;;5.22;1.48;;;28.20;74.70;;;;;;5004882;28;20096;-74
2022/10/07 12:32:39;;;;;;;3.10;0.70;;;28.40;72.30;;;;;;4996622;28;20058;-74
2022/10/07 12:35:33;;;;;;;7.97;0.82;;;28.40;72.10;;;;;;4999585;28;20033;-74
2022/10/07 12:38:25;;;;;;;4.88;1.10;;;28.70;71.20;;;;;;5003662;28;20046;-74
2022/10/07 12:41:18;;;;;;;6.13;0.80;;;29.00;69.90;;;;;;5002289;28;20037;-74
2022/10/07 12:44:05;;;;;;;5.93;1.10;;;29.50;69.20;;;;;;4986547;28;20065;-74
2022/10/07 12:46:49;;;;;;;5.35;1.13;;;29.30;67.20;;;;;;4998949;28;20346;-74
2022/10/07 12:49:15;;;;;;;6.57;0.95;;;29.30;66.40;;;;;;5003543;28;20033;-75
2022/10/07 12:51:43;;;;;;;4.97;1.00;;;29.30;65.70;;;;;;5001308;28;20396;-75
2022/10/07 12:54:19;;;;;;;7.20;1.02;;;29.40;65.50;;;;;;4999053;28;20041;-74
2022/10/07 12:56:47;;;;;;;7.28;1.25;;;29.80;64.60;;;;;;5002043;28;20065;-73
2022/10/07 12:59:49;;;;;;;5.47;1.00;;;29.90;63.80;;;;;;5004813;28;20412;-72
2022/10/07 13:02:21;;;;;;;6.22;3.80;;;30.00;62.80;;;;;;5018210;28;20045;-74
2022/10/07 13:05:02;;;;;;;6.63;3.97;;;29.90;62.00;;;;;;5001698;28;20029;-75
2022/10/07 13:08:07;;;;;;;4.95;1.60;;;28.90;61.80;;;;;;5017466;28;20045;-73
2022/10/07 13:10:41;;;;;;;4.55;0.88;;;27.10;63.20;;;;;;4996151;28;20505;-73
2022/10/07 13:13:29;;;;;;;6.60;1.00;;;25.60;65.60;;;;;;5004390;28;20496;-72
2022/10/07 13:16:11;;;;;;;10.73;3.63;;;24.30;66.10;;;;;;4984121;28;20038;-72
2022/10/07 13:18:40;;;;;;;;;;;23.30;67.90;;;;;;5001573;28;20393;-72
2022/10/07 13:21:36;;;;;;;6.22;1.30;;;22.60;69.20;;;;;;5003485;28;19924;-72
2022/10/07 13:24:02;;;;;;;5.88;1.70;;;21.90;70.80;;;;;;4997622;28;20045;-74
2022/10/07 13:26:29;;;;;;;5.82;0.90;;;21.50;72.50;;;;;;4988270;28;20046;-74
2022/10/07 13:28:59;;;;;;;4.55;0.90;;;21.10;73.60;;;;;;5004184;28;20053;-73
2022/10/07 13:31:29;;;;;;;4.85;0.98;;;20.80;74.20;;;;;;5015688;28;20038;-73
2022/10/07 13:33:58;;;;;;;6.28;0.73;;;20.50;75.20;;;;;;4997100;28;20041;-74